Time;durP1;ratioP1;P1;durP2;ratioP2;P2;SDS_P1;SDS_P2;PMS_P1;PMS_P2;Temp;Humidity;BMP_temperature;BMP_pressure;BME280_temperature;BME280_humidity;BME280_pressure;Samples;Min_cycle;Max_cycle;Signal;HPM_P1;HPM_P2
2023/01/13 00:01:24;;;;;;;4.20;4.00;;;10.80;99.90;;;;;;5051559;28;20194;-64
2023/01/13 00:03:51;;;;;;;4.10;4.00;;;10.80;99.90;;;;;;5037791;28;20184;-64
2023/01/13 00:06:26;;;;;;;4.60;4.40;;;10.90;99.90;;;;;;5034789;28;20168;-64
2023/01/13 00:08:52;;;;;;;4.60;4.40;;;10.90;99.90;;;;;;5051235;28;20173;-64
2023/01/13 00:11:19;;;;;;;4.53;4.33;;;10.90;99.90;;;;;;5054343;28;20191;-65
2023/01/13 00:13:45;;;;;;;4.10;3.90;;;10.90;99.90;;;;;;5040043;28;20222;-64
2023/01/13 00:16:14;;;;;;;4.40;4.20;;;10.90;99.90;;;;;;5034531;28;20211;-64
2023/01/13 00:18:40;;;;;;;4.50;4.30;;;10.90;99.90;;;;;;5047979;28;20175;-64
2023/01/13 00:21:18;;;;;;;4.87;4.67;;;10.80;99.90;;;;;;5038629;28;20282;-64
2023/01/13 00:23:44;;;;;;;5.03;4.73;;;10.80;99.90;;;;;;5047874;28;20233;-64
2023/01/13 00:26:16;;;;;;;4.50;4.30;;;10.80;99.90;;;;;;5040626;28;20187;-64
2023/01/13 00:28:42;;;;;;;4.70;4.50;;;10.80;99.90;;;;;;5046794;28;20266;-64
2023/01/13 00:31:13;;;;;;;4.73;4.53;;;10.80;99.90;;;;;;5053977;28;20282;-65
2023/01/13 00:33:39;;;;;;;4.77;4.57;;;10.80;99.90;;;;;;5052770;28;20671;-64
2023/01/13 00:36:07;;;;;;;4.60;4.40;;;10.80;99.90;;;;;;5054425;28;20178;-64
2023/01/13 00:38:34;;;;;;;4.70;4.50;;;10.80;99.90;;;;;;5044187;28;20187;-64
2023/01/13 00:41:04;;;;;;;4.80;4.60;;;10.80;99.90;;;;;;5034119;28;20214;-64
2023/01/13 00:43:31;;;;;;;5.07;4.83;;;10.70;99.90;;;;;;5035703;28;20183;-64
2023/01/13 00:45:58;;;;;;;4.80;4.60;;;10.70;99.90;;;;;;5034400;28;20210;-64
2023/01/13 00:48:24;;;;;;;4.23;4.03;;;10.80;99.90;;;;;;5040834;28;20696;-64
2023/01/13 00:51:06;;;;;;;4.40;4.10;;;10.80;99.90;;;;;;5054032;28;20171;-64
2023/01/13 00:53:46;;;;;;;5.00;4.80;;;10.80;99.90;;;;;;5046298;28;20179;-64
2023/01/13 00:56:17;;;;;;;5.13;4.93;;;10.80;99.90;;;;;;5033966;28;20175;-64
2023/01/13 00:58:43;;;;;;;4.10;4.00;;;10.80;99.90;;;;;;5042239;28;20262;-64
2023/01/13 01:01:18;;;;;;;5.63;5.37;;;10.80;99.90;;;;;;5048653;28;20207;-64
2023/01/13 01:03:46;;;;;;;4.87;4.67;;;10.80;99.90;;;;;;5034034;28;20170;-64
2023/01/13 01:06:15;;;;;;;4.80;4.60;;;10.80;99.90;;;;;;5038301;28;20190;-63
2023/01/13 01:08:41;;;;;;;6.33;5.73;;;10.80;99.90;;;;;;5054917;28;20585;-63
2023/01/13 01:11:09;;;;;;;4.70;4.50;;;10.70;99.90;;;;;;5051338;28;20684;-64
2023/01/13 01:13:36;;;;;;;5.27;4.97;;;10.70;99.90;;;;;;5032664;28;20171;-64
2023/01/13 01:16:10;;;;;;;4.23;4.03;;;10.80;99.90;;;;;;5034880;28;20209;-64
2023/01/13 01:18:38;;;;;;;5.10;4.90;;;10.80;99.90;;;;;;5053577;28;20178;-64
2023/01/13 01:21:04;;;;;;;4.93;4.60;;;10.80;99.90;;;;;;5051978;28;20198;-64
2023/01/13 01:23:31;;;;;;;5.73;5.33;;;10.80;99.90;;;;;;5033493;28;20180;-64
2023/01/13 01:26:00;;;;;;;6.67;5.27;;;10.80;99.90;;;;;;5033408;28;20245;-64
2023/01/13 01:28:26;;;;;;;4.47;4.27;;;10.80;99.90;;;;;;5052651;28;20197;-64
2023/01/13 01:30:54;;;;;;;5.93;4.33;;;10.80;99.90;;;;;;5052969;28;20543;-64
2023/01/13 01:33:20;;;;;;;6.90;6.53;;;10.70;99.90;;;;;;5034735;28;20179;-64
2023/01/13 01:35:46;;;;;;;6.70;6.30;;;10.60;99.90;;;;;;5033365;28;20178;-64
2023/01/13 01:38:11;;;;;;;9.27;8.53;;;10.50;99.90;;;;;;5049422;28;20171;-64
2023/01/13 01:40:37;;;;;;;6.10;5.80;;;10.20;99.90;;;;;;5051401;28;20199;-63
2023/01/13 01:46:01;;;;;;;5.30;5.10;;;9.70;99.90;;;;;;5033113;28;20619;-64
2023/01/13 01:48:35;;;;;;;5.13;4.93;;;9.60;99.90;;;;;;5032987;28;20187;-64
2023/01/13 01:51:01;;;;;;;6.23;5.93;;;9.50;99.90;;;;;;5031430;28;20195;-64
2023/01/13 01:53:28;;;;;;;10.83;10.03;;;9.40;99.90;;;;;;5033318;28;20183;-64
2023/01/13 01:55:56;;;;;;;27.53;26.27;;;9.40;99.90;;;;;;5033060;28;20175;-64
2023/01/13 01:58:34;;;;;;;6.20;5.60;;;9.30;99.90;;;;;;5033763;28;20190;-63
2023/01/13 02:01:00;;;;;;;5.93;5.70;;;9.30;99.90;;;;;;5032560;28;20187;-64
2023/01/13 02:03:25;;;;;;;10.73;10.23;;;9.30;99.90;;;;;;5047438;28;20179;-64
2023/01/13 02:05:51;;;;;;;4.97;4.77;;;9.20;99.90;;;;;;5052560;28;20202;-64
2023/01/13 02:08:18;;;;;;;6.07;5.77;;;9.20;99.90;;;;;;5039130;28;20270;-64
2023/01/13 02:10:49;;;;;;;12.20;5.57;;;9.20;99.90;;;;;;5032341;28;20649;-63
2023/01/13 02:13:15;;;;;;;5.97;5.10;;;9.10;99.90;;;;;;5039756;28;20182;-64
2023/01/13 02:15:53;;;;;;;5.23;5.03;;;9.10;99.90;;;;;;5036446;28;20228;-64
2023/01/13 02:18:25;;;;;;;5.40;5.20;;;9.10;99.90;;;;;;5032572;28;20175;-63
2023/01/13 02:21:14;;;;;;;5.60;5.30;;;9.00;99.90;;;;;;5012610;28;20241;-64
2023/01/13 02:27:16;;;;;;;6.00;5.53;;;9.00;99.90;;;;;;5052331;28;20553;-64
2023/01/13 02:33:08;;;;;;;5.63;5.30;;;9.00;99.90;;;;;;5032156;28;20199;-64
2023/01/13 02:35:52;;;;;;;4.90;4.70;;;9.00;99.90;;;;;;5012595;28;20172;-64
2023/01/13 02:38:23;;;;;;;6.17;5.87;;;9.00;99.90;;;;;;5018019;28;20175;-64
2023/01/13 02:44:07;;;;;;;6.00;5.60;;;9.00;99.90;;;;;;5051396;28;20188;-63
2023/01/13 02:46:39;;;;;;;9.10;5.70;;;9.10;99.90;;;;;;5051852;28;20170;-64
2023/01/13 02:49:10;;;;;;;6.27;5.87;;;9.10;99.90;;;;;;5050174;28;20171;-64
2023/01/13 02:51:39;;;;;;;5.93;5.40;;;9.00;99.90;;;;;;5051792;28;20193;-63
2023/01/13 02:54:19;;;;;;;6.27;5.87;;;9.00;99.90;;;;;;5044517;28;20176;-64
2023/01/13 02:56:49;;;;;;;5.40;5.20;;;9.00;99.90;;;;;;5032942;28;20190;-64
2023/01/13 02:59:17;;;;;;;5.47;5.27;;;8.90;99.90;;;;;;5031670;28;20198;-63
2023/01/13 03:01:42;;;;;;;5.77;5.53;;;8.80;99.90;;;;;;5033391;28;20201;-64
2023/01/13 03:04:13;;;;;;;5.40;5.20;;;8.80;99.90;;;;;;5051423;28;20195;-63
2023/01/13 03:06:59;;;;;;;5.90;5.60;;;8.80;99.90;;;;;;5050717;28;20171;-64
2023/01/13 03:09:44;;;;;;;5.60;5.30;;;8.80;99.90;;;;;;5011667;28;20234;-64
2023/01/13 03:12:36;;;;;;;4.97;4.77;;;8.90;99.90;;;;;;5020435;28;20195;-64
2023/01/13 03:15:39;;;;;;;6.20;5.90;;;8.90;99.90;;;;;;5051507;28;20175;-63
2023/01/13 03:18:32;;;;;;;5.53;5.33;;;8.90;99.90;;;;;;5044652;28;20236;-64
2023/01/13 03:21:04;;;;;;;5.60;5.10;;;8.90;99.90;;;;;;5051143;28;20186;-64
2023/01/13 03:23:35;;;;;;;7.50;5.90;;;8.90;99.90;;;;;;5035117;28;20266;-63
2023/01/13 03:26:10;;;;;;;6.87;6.47;;;8.80;99.90;;;;;;5031690;28;20203;-64
2023/01/13 03:28:41;;;;;;;6.93;6.63;;;8.80;99.90;;;;;;5047215;28;20174;-64
2023/01/13 03:31:16;;;;;;;6.90;6.40;;;8.70;99.90;;;;;;5051310;28;20663;-64
2023/01/13 03:33:47;;;;;;;6.17;5.77;;;8.60;99.90;;;;;;5034961;28;20197;-64
2023/01/13 03:36:16;;;;;;;6.00;5.53;;;8.50;99.90;;;;;;5032086;28;20167;-64
2023/01/13 03:38:48;;;;;;;6.73;6.37;;;8.50;99.90;;;;;;5050837;28;20201;-64
2023/01/13 03:41:31;;;;;;;5.60;5.20;;;8.40;99.90;;;;;;5054786;28;20203;-64
2023/01/13 03:44:21;;;;;;;6.73;6.33;;;8.50;99.90;;;;;;5053733;28;20186;-63
2023/01/13 03:47:04;;;;;;;5.07;4.77;;;8.40;99.90;;;;;;5055201;28;20171;-64
2023/01/13 03:50:05;;;;;;;5.50;5.20;;;8.50;99.90;;;;;;5015330;28;20595;-64
2023/01/13 03:52:35;;;;;;;5.20;4.83;;;8.50;99.90;;;;;;4993592;28;20543;-64
2023/01/13 03:55:07;;;;;;;5.20;5.00;;;8.50;99.90;;;;;;5054637;28;20171;-64
2023/01/13 03:57:38;;;;;;;5.33;5.03;;;8.60;99.90;;;;;;5048840;28;20203;-64
2023/01/13 04:00:08;;;;;;;5.20;4.90;;;8.60;99.90;;;;;;5033527;28;20186;-64
2023/01/13 04:02:59;;;;;;;6.33;5.87;;;8.50;99.90;;;;;;5038885;28;20203;-64
2023/01/13 04:05:26;;;;;;;8.13;5.83;;;8.50;99.90;;;;;;5053534;28;20214;-63
2023/01/13 04:08:16;;;;;;;7.07;6.37;;;8.50;99.90;;;;;;5048814;28;20179;-64
2023/01/13 04:11:05;;;;;;;7.23;6.57;;;8.40;99.90;;;;;;5038141;28;20596;-64
2023/01/13 04:13:36;;;;;;;5.97;5.77;;;8.30;99.90;;;;;;5054434;28;20183;-64
2023/01/13 04:16:05;;;;;;;8.73;7.57;;;8.30;99.90;;;;;;5048490;28;20175;-63
2023/01/13 04:18:31;;;;;;;5.73;5.27;;;8.20;99.90;;;;;;5036279;28;20180;-63
2023/01/13 04:20:59;;;;;;;5.90;5.40;;;8.20;99.90;;;;;;5054561;28;20177;-64
2023/01/13 04:23:26;;;;;;;7.40;5.40;;;8.20;99.90;;;;;;5054162;28;20175;-64
2023/01/13 04:25:52;;;;;;;5.93;5.40;;;8.10;99.90;;;;;;5033304;28;20214;-63
2023/01/13 04:28:18;;;;;;;6.57;5.90;;;8.10;99.90;;;;;;5034536;28;20172;-64
2023/01/13 04:30:44;;;;;;;5.60;5.20;;;8.10;99.90;;;;;;5052541;28;20181;-64
2023/01/13 04:33:12;;;;;;;6.03;5.53;;;8.00;99.90;;;;;;5055977;28;20171;-64
2023/01/13 04:35:37;;;;;;;6.77;5.87;;;8.00;99.90;;;;;;5041275;28;20175;-63
2023/01/13 04:38:08;;;;;;;8.07;5.80;;;8.00;99.90;;;;;;5038531;28;20668;-64
2023/01/13 04:40:34;;;;;;;6.50;5.93;;;8.00;99.90;;;;;;5036713;28;20565;-63
2023/01/13 04:43:00;;;;;;;5.47;5.27;;;8.00;99.90;;;;;;5033999;28;20277;-62
2023/01/13 04:45:25;;;;;;;6.77;6.07;;;8.00;99.90;;;;;;5050844;28;20244;-63
2023/01/13 04:47:51;;;;;;;5.23;4.93;;;8.00;99.90;;;;;;5054226;28;20240;-61
2023/01/13 04:50:21;;;;;;;5.83;5.30;;;8.10;99.90;;;;;;5038701;28;20250;-63
2023/01/13 04:52:51;;;;;;;6.63;5.17;;;8.20;99.90;;;;;;5034382;28;20202;-63
2023/01/13 04:55:18;;;;;;;5.73;5.27;;;8.20;99.90;;;;;;5048344;28;20636;-64
2023/01/13 04:57:43;;;;;;;7.43;6.80;;;8.30;99.90;;;;;;5053938;28;20191;-62
2023/01/13 05:00:11;;;;;;;10.27;5.53;;;8.40;99.90;;;;;;5040607;28;20274;-64
2023/01/13 05:02:37;;;;;;;7.10;6.60;;;8.40;99.90;;;;;;5033808;28;20206;-64
2023/01/13 05:05:03;;;;;;;6.77;5.30;;;8.40;99.90;;;;;;5045058;28;20194;-64
2023/01/13 05:07:28;;;;;;;9.60;5.07;;;8.50;99.90;;;;;;5044026;28;20183;-64
2023/01/13 05:09:54;;;;;;;5.97;5.63;;;8.50;99.90;;;;;;5033500;28;20246;-64
2023/01/13 05:17:49;;;;;;;7.93;6.50;;;8.50;99.90;;;;;;5042619;28;20186;-64
2023/01/13 05:20:14;;;;;;;9.13;5.90;;;8.40;99.90;;;;;;5033318;28;20224;-63
2023/01/13 05:25:24;;;;;;;10.67;7.40;;;8.30;99.90;;;;;;5053386;28;20213;-62
2023/01/13 05:27:56;;;;;;;5.47;4.83;;;8.20;99.90;;;;;;5043036;28;20171;-64
2023/01/13 05:30:24;;;;;;;6.50;5.73;;;8.20;99.90;;;;;;5033094;28;20536;-61
2023/01/13 05:32:50;;;;;;;5.20;5.00;;;8.20;99.90;;;;;;5042773;28;20233;-63
2023/01/13 05:35:16;;;;;;;14.50;5.70;;;8.20;99.90;;;;;;5045473;28;20268;-64
2023/01/13 05:37:42;;;;;;;5.57;5.17;;;8.30;99.90;;;;;;5032054;28;20176;-63
2023/01/13 05:43:21;;;;;;;5.80;5.33;;;8.40;99.90;;;;;;5053466;28;20212;-63
2023/01/13 05:45:59;;;;;;;5.40;5.10;;;8.50;99.90;;;;;;5041391;28;20608;-63
2023/01/13 05:48:37;;;;;;;11.13;5.97;;;8.50;99.90;;;;;;5033082;28;20175;-63
2023/01/13 05:51:04;;;;;;;5.60;5.10;;;8.40;99.90;;;;;;5044647;28;20660;-63
2023/01/13 05:53:30;;;;;;;6.03;5.27;;;8.50;99.90;;;;;;5052293;28;20186;-64
2023/01/13 05:55:56;;;;;;;5.70;5.40;;;8.40;99.90;;;;;;5041880;28;20179;-63
2023/01/13 05:58:24;;;;;;;5.83;5.53;;;8.40;99.90;;;;;;5032712;28;20196;-63
2023/01/13 06:00:50;;;;;;;6.17;5.87;;;8.30;99.90;;;;;;5031858;28;20182;-63
2023/01/13 06:03:18;;;;;;;5.57;5.37;;;8.40;99.90;;;;;;5039677;28;20575;-63
2023/01/13 06:05:45;;;;;;;5.17;4.97;;;8.30;99.90;;;;;;5052552;28;20194;-63
2023/01/13 06:08:11;;;;;;;11.80;5.07;;;8.40;99.90;;;;;;5046480;28;20168;-63
2023/01/13 06:10:37;;;;;;;5.77;5.33;;;8.40;99.90;;;;;;5032314;28;20579;-63
2023/01/13 06:13:03;;;;;;;6.37;5.33;;;8.40;99.90;;;;;;5033907;28;20278;-63
2023/01/13 06:15:29;;;;;;;4.57;4.37;;;8.50;99.90;;;;;;5043645;28;20607;-63
2023/01/13 06:17:55;;;;;;;5.30;4.90;;;8.50;99.90;;;;;;5032608;28;20262;-64
2023/01/13 06:20:22;;;;;;;5.13;4.77;;;8.60;99.90;;;;;;5032151;28;20179;-63
2023/01/13 06:22:50;;;;;;;5.40;5.17;;;8.60;99.90;;;;;;5032371;28;20215;-63
2023/01/13 06:25:36;;;;;;;5.20;4.70;;;8.70;99.90;;;;;;5035148;28;20211;-63
2023/01/13 06:28:02;;;;;;;5.37;5.00;;;8.70;99.90;;;;;;5034053;28;20190;-63
2023/01/13 06:30:32;;;;;;;6.70;5.07;;;8.80;99.90;;;;;;5051428;28;20183;-63
2023/01/13 06:33:02;;;;;;;5.70;5.20;;;8.80;99.90;;;;;;5012621;28;20286;-63
2023/01/13 06:35:33;;;;;;;4.97;4.50;;;8.70;99.90;;;;;;5012482;28;20226;-63
2023/01/13 06:38:02;;;;;;;5.30;5.00;;;8.70;99.90;;;;;;5011153;28;20658;-64
2023/01/13 06:40:28;;;;;;;5.60;5.20;;;8.60;99.90;;;;;;5011965;28;20264;-63
2023/01/13 06:45:39;;;;;;;5.37;5.07;;;8.50;99.90;;;;;;5030357;28;20260;-63
2023/01/13 06:48:06;;;;;;;6.10;5.70;;;8.40;99.90;;;;;;5031596;28;20172;-63
2023/01/13 06:50:31;;;;;;;9.33;5.10;;;8.30;99.90;;;;;;5031446;28;20163;-63
2023/01/13 06:52:57;;;;;;;14.20;5.53;;;8.30;99.90;;;;;;5049485;28;20202;-63
2023/01/13 06:55:23;;;;;;;6.70;6.30;;;8.30;99.90;;;;;;5051605;28;20163;-63
2023/01/13 06:57:53;;;;;;;6.53;5.47;;;8.30;99.90;;;;;;5050101;28;20421;-63
2023/01/13 07:00:20;;;;;;;6.70;5.57;;;8.40;99.90;;;;;;5051124;28;20182;-63
2023/01/13 07:02:46;;;;;;;6.40;6.00;;;8.40;99.90;;;;;;5035617;28;20203;-63
2023/01/13 07:05:12;;;;;;;6.27;5.87;;;8.40;99.90;;;;;;5045424;28;20203;-63
2023/01/13 07:07:38;;;;;;;6.27;5.87;;;8.50;99.90;;;;;;5051741;28;20178;-63
2023/01/13 07:10:07;;;;;;;8.47;7.97;;;8.50;99.90;;;;;;5038745;28;20175;-64
2023/01/13 07:15:17;;;;;;;6.10;5.00;;;8.50;99.90;;;;;;5040870;28;20280;-64
2023/01/13 07:15:18;;;;;;;5.17;4.97;;;8.50;99.90;;;;;;5051374;28;20178;-63
2023/01/13 07:17:43;;;;;;;15.07;14.00;;;8.50;99.90;;;;;;5040144;28;20184;-63
2023/01/13 07:20:09;;;;;;;9.60;9.20;;;8.40;99.90;;;;;;5032299;28;20621;-61
2023/01/13 07:22:35;;;;;;;5.07;4.77;;;8.40;99.90;;;;;;5026823;28;20202;-63
2023/01/13 07:25:00;;;;;;;6.73;6.23;;;8.30;99.90;;;;;;5013094;28;20203;-62
2023/01/13 07:27:26;;;;;;;8.00;6.70;;;8.20;99.90;;;;;;5031532;28;20176;-63
2023/01/13 07:29:51;;;;;;;7.03;6.67;;;8.20;99.90;;;;;;5031120;28;20564;-63
2023/01/13 07:32:17;;;;;;;7.03;6.43;;;8.10;99.90;;;;;;5032639;28;20242;-63
2023/01/13 07:34:42;;;;;;;8.43;6.00;;;8.10;99.90;;;;;;5031256;28;20171;-63
2023/01/13 07:37:08;;;;;;;5.17;4.73;;;8.00;99.90;;;;;;5031370;28;20254;-63
2023/01/13 07:39:34;;;;;;;7.23;6.70;;;8.00;99.90;;;;;;5031207;28;20547;-62
2023/01/13 07:44:43;;;;;;;8.37;7.60;;;8.00;99.90;;;;;;5030778;28;20273;-63
2023/01/13 07:47:10;;;;;;;7.17;6.50;;;8.00;99.90;;;;;;5031389;28;20207;-63
2023/01/13 07:49:36;;;;;;;4.70;4.50;;;8.00;99.90;;;;;;5031074;28;20160;-63
2023/01/13 07:52:01;;;;;;;5.00;4.80;;;8.00;99.90;;;;;;5031248;28;20194;-63
2023/01/13 07:54:27;;;;;;;9.93;4.97;;;8.00;99.90;;;;;;5031228;28;20263;-64
2023/01/13 07:56:55;;;;;;;8.63;5.80;;;7.90;99.90;;;;;;5031177;28;20176;-63
2023/01/13 07:59:21;;;;;;;5.97;5.53;;;7.90;99.90;;;;;;5029290;28;20271;-64
2023/01/13 08:01:47;;;;;;;7.80;7.30;;;7.90;99.90;;;;;;5030844;28;20644;-63
2023/01/13 08:04:12;;;;;;;6.73;6.13;;;7.90;99.90;;;;;;5030780;28;20176;-63
2023/01/13 08:06:40;;;;;;;5.97;5.50;;;7.90;99.90;;;;;;5030866;28;20167;-64
2023/01/13 08:09:06;;;;;;;6.00;5.43;;;7.90;99.90;;;;;;5030824;28;20541;-63
2023/01/13 08:11:31;;;;;;;5.10;4.80;;;8.00;99.90;;;;;;5031151;28;20179;-64
2023/01/13 08:13:57;;;;;;;10.07;5.73;;;8.10;99.90;;;;;;5030984;28;20573;-64
2023/01/13 08:16:23;;;;;;;5.50;5.30;;;8.10;99.90;;;;;;5031109;28;20180;-63
2023/01/13 08:18:48;;;;;;;5.60;5.10;;;8.20;99.90;;;;;;5033618;28;20225;-63
2023/01/13 08:21:15;;;;;;;9.50;5.80;;;8.20;99.90;;;;;;5033706;28;20196;-63
2023/01/13 08:23:42;;;;;;;6.03;5.33;;;8.30;99.90;;;;;;5036501;28;20176;-62
2023/01/13 08:26:11;;;;;;;5.50;5.20;;;8.30;99.90;;;;;;5034756;28;20204;-63
2023/01/13 08:28:39;;;;;;;7.27;6.57;;;8.40;99.90;;;;;;5034567;28;20242;-63
2023/01/13 08:31:12;;;;;;;7.37;6.87;;;8.50;99.90;;;;;;5034196;28;20188;-63
2023/01/13 08:33:39;;;;;;;5.87;5.37;;;8.60;99.90;;;;;;5034695;28;20171;-63
2023/01/13 08:36:07;;;;;;;5.93;5.33;;;8.70;99.90;;;;;;5034293;28;20168;-63
2023/01/13 08:38:33;;;;;;;7.30;6.50;;;8.80;99.90;;;;;;5034304;28;20175;-64
2023/01/13 08:40:59;;;;;;;6.10;5.50;;;8.90;99.90;;;;;;5033941;28;20198;-63
2023/01/13 08:43:25;;;;;;;5.23;4.70;;;9.00;99.90;;;;;;5034332;28;20661;-64
2023/01/13 08:45:59;;;;;;;5.47;5.10;;;9.10;99.90;;;;;;5033993;28;20208;-64
2023/01/13 08:48:25;;;;;;;6.07;5.53;;;9.20;99.90;;;;;;5034387;28;20176;-64
2023/01/13 08:50:52;;;;;;;5.90;5.40;;;9.30;99.90;;;;;;5033795;28;20163;-64
2023/01/13 08:53:17;;;;;;;8.47;7.27;;;9.40;99.90;;;;;;5045278;28;20179;-64
2023/01/13 08:55:43;;;;;;;6.30;5.70;;;9.50;99.90;;;;;;5054122;28;20217;-63
2023/01/13 08:58:08;;;;;;;6.67;6.07;;;9.60;99.90;;;;;;5051562;28;20183;-64
2023/01/13 09:00:34;;;;;;;6.87;6.27;;;9.60;99.90;;;;;;5053677;28;20253;-63
2023/01/13 09:03:00;;;;;;;6.03;5.13;;;9.50;99.90;;;;;;5036579;28;20214;-64
2023/01/13 09:05:25;;;;;;;5.77;5.27;;;9.50;99.90;;;;;;5033581;28;20235;-63
2023/01/13 09:07:51;;;;;;;6.00;5.43;;;9.50;99.90;;;;;;5048840;28;20539;-64
2023/01/13 09:10:17;;;;;;;8.70;5.40;;;9.50;99.90;;;;;;5053189;28;20201;-63
2023/01/13 09:15:26;;;;;;;6.73;6.10;;;9.80;99.90;;;;;;5053420;28;20248;-63
2023/01/13 09:17:52;;;;;;;10.90;6.07;;;9.80;99.90;;;;;;5051953;28;20566;-64
2023/01/13 09:20:18;;;;;;;7.70;4.87;;;9.80;99.90;;;;;;5053075;28;20175;-64
2023/01/13 09:22:43;;;;;;;5.33;4.93;;;9.60;99.90;;;;;;5040558;28;20203;-64
2023/01/13 09:25:11;;;;;;;5.93;5.30;;;9.60;99.90;;;;;;5033270;28;20242;-63
2023/01/13 09:27:37;;;;;;;10.13;5.00;;;9.80;99.90;;;;;;5044352;28;20175;-64
2023/01/13 09:30:03;;;;;;;5.50;5.17;;;9.90;99.90;;;;;;5052981;28;20162;-65
2023/01/13 09:32:28;;;;;;;11.60;10.63;;;10.10;99.90;;;;;;5052613;28;20206;-64
2023/01/13 09:35:00;;;;;;;5.17;4.73;;;10.30;99.90;;;;;;5052142;28;20183;-64
2023/01/13 09:37:34;;;;;;;5.80;4.63;;;10.50;99.90;;;;;;5044560;28;20183;-64
2023/01/13 09:40:01;;;;;;;5.67;5.20;;;10.70;99.90;;;;;;5032927;28;20171;-63
2023/01/13 09:45:21;;;;;;;10.90;4.90;;;11.40;99.90;;;;;;5052493;28;20336;-63
2023/01/13 09:48:00;;;;;;;3.93;3.67;;;11.60;99.90;;;;;;5052377;28;20170;-63
2023/01/13 09:51:17;;;;;;;9.47;4.83;;;11.40;99.90;;;;;;5052628;28;20174;-63
2023/01/13 09:53:55;;;;;;;12.23;4.40;;;11.30;99.90;;;;;;5012244;28;20195;-64
2023/01/13 09:56:22;;;;;;;5.27;4.80;;;11.30;99.90;;;;;;5035753;28;20179;-64
2023/01/13 09:58:48;;;;;;;5.03;4.60;;;11.20;99.90;;;;;;5032869;28;20704;-63
2023/01/13 10:01:19;;;;;;;8.23;4.93;;;11.00;99.90;;;;;;5049309;28;20199;-63
2023/01/13 10:03:47;;;;;;;14.73;6.87;;;10.70;99.90;;;;;;5052752;28;20179;-63
2023/01/13 10:06:41;;;;;;;5.83;5.43;;;10.60;99.90;;;;;;5035664;28;20195;-64
2023/01/13 10:09:32;;;;;;;7.57;5.00;;;10.50;99.90;;;;;;5030868;28;20194;-63
2023/01/13 10:14:55;;;;;;;10.50;4.80;;;11.30;99.90;;;;;;5047460;28;20713;-63
2023/01/13 10:17:27;;;;;;;9.23;4.20;;;11.50;99.90;;;;;;5038180;28;20185;-64
2023/01/13 10:20:09;;;;;;;4.50;4.20;;;11.70;99.90;;;;;;5012512;28;20184;-64
2023/01/13 10:22:40;;;;;;;7.80;4.73;;;11.80;99.90;;;;;;5016096;28;20278;-64
2023/01/13 10:25:06;;;;;;;4.93;3.97;;;11.80;99.90;;;;;;5043262;28;20227;-64
2023/01/13 10:27:37;;;;;;;5.10;4.77;;;11.90;99.90;;;;;;5032401;28;20222;-64
2023/01/13 10:30:14;;;;;;;11.50;6.03;;;11.90;99.90;;;;;;5033090;28;20167;-63
2023/01/13 10:32:45;;;;;;;10.10;4.70;;;11.50;99.90;;;;;;5052025;28;20198;-64
2023/01/13 10:35:10;;;;;;;6.87;5.60;;;11.30;99.90;;;;;;5037878;28;20182;-64
2023/01/13 10:37:36;;;;;;;12.30;4.73;;;11.20;99.90;;;;;;5047291;28;20179;-63
2023/01/13 10:40:03;;;;;;;9.67;8.73;;;11.10;99.90;;;;;;5051733;28;20237;-63
2023/01/13 10:42:28;;;;;;;5.97;5.00;;;11.10;99.90;;;;;;5040672;28;20405;-63
2023/01/13 10:44:57;;;;;;;9.27;5.07;;;10.90;99.90;;;;;;5031830;28;20199;-63
2023/01/13 10:47:22;;;;;;;5.10;4.53;;;10.80;99.90;;;;;;5041083;28;20263;-63
2023/01/13 10:50:22;;;;;;;10.27;9.40;;;10.70;99.90;;;;;;5051735;28;20598;-63
2023/01/13 10:53:00;;;;;;;4.87;4.53;;;10.60;99.90;;;;;;5039066;28;20203;-63
2023/01/13 10:55:25;;;;;;;7.53;6.70;;;10.60;99.90;;;;;;5031717;28;20186;-63
2023/01/13 10:57:51;;;;;;;7.73;7.00;;;10.50;99.90;;;;;;5033343;28;20175;-64
2023/01/13 11:00:29;;;;;;;6.23;5.70;;;10.50;99.90;;;;;;5031543;28;20202;-64
2023/01/13 11:03:14;;;;;;;5.43;4.90;;;10.50;99.90;;;;;;5032696;28;20689;-64
2023/01/13 11:05:57;;;;;;;13.17;5.70;;;10.60;99.90;;;;;;5031272;28;20261;-63
2023/01/13 11:08:26;;;;;;;9.00;5.40;;;10.80;99.90;;;;;;5031760;28;20178;-64
2023/01/13 11:10:54;;;;;;;15.50;6.70;;;11.10;99.90;;;;;;5031401;28;20179;-64
2023/01/13 11:13:23;;;;;;;7.03;5.57;;;11.10;99.90;;;;;;5031479;28;20214;-64
2023/01/13 11:16:15;;;;;;;66.17;62.83;;;11.10;99.90;;;;;;5031558;28;20179;-64
2023/01/13 11:19:10;;;;;;;15.30;14.47;;;11.20;99.90;;;;;;5031521;28;20588;-63
2023/01/13 11:21:51;;;;;;;13.60;5.10;;;11.40;99.90;;;;;;5046797;28;20568;-63
2023/01/13 11:24:43;;;;;;;7.30;4.80;;;11.30;99.90;;;;;;5051169;28;20224;-64
2023/01/13 11:27:14;;;;;;;9.50;7.30;;;11.10;99.90;;;;;;5022895;28;20246;-63
2023/01/13 11:29:53;;;;;;;7.00;5.50;;;11.00;99.90;;;;;;5031633;28;20254;-64
2023/01/13 11:32:23;;;;;;;5.10;4.70;;;10.90;99.90;;;;;;5012082;28;20215;-64
2023/01/13 11:34:59;;;;;;;7.83;5.00;;;10.90;99.90;;;;;;5047967;28;20213;-64
2023/01/13 11:37:28;;;;;;;8.83;8.13;;;10.90;99.90;;;;;;5051714;28;20209;-64
2023/01/13 11:39:56;;;;;;;8.43;7.73;;;10.90;99.90;;;;;;5034846;28;20742;-64
2023/01/13 11:42:41;;;;;;;6.80;5.07;;;11.00;99.90;;;;;;5032562;28;20773;-63
2023/01/13 11:45:19;;;;;;;6.97;5.30;;;11.10;99.90;;;;;;5051062;28;20202;-63
2023/01/13 11:47:48;;;;;;;4.70;4.30;;;11.10;99.90;;;;;;5052548;28;20181;-63
2023/01/13 11:50:27;;;;;;;7.80;5.33;;;11.00;99.90;;;;;;5032774;28;20179;-64
2023/01/13 11:52:58;;;;;;;6.50;5.93;;;10.80;99.90;;;;;;5032398;28;20195;-64
2023/01/13 11:55:42;;;;;;;5.90;5.43;;;10.80;99.90;;;;;;5029169;28;20195;-64
2023/01/13 11:58:24;;;;;;;11.37;10.50;;;10.80;99.90;;;;;;5042736;28;20178;-64
2023/01/13 12:01:29;;;;;;;5.73;5.33;;;10.80;99.90;;;;;;5054218;28;20225;-61
2023/01/13 12:03:57;;;;;;;6.90;6.60;;;10.90;99.90;;;;;;5035639;28;20686;-64
2023/01/13 12:06:39;;;;;;;6.33;5.93;;;10.80;99.90;;;;;;5036087;28;20203;-64
2023/01/13 12:09:26;;;;;;;6.23;5.60;;;10.80;99.90;;;;;;5034861;28;20163;-64
2023/01/13 12:12:20;;;;;;;5.60;5.10;;;10.70;99.90;;;;;;5042787;28;20191;-62
2023/01/13 12:15:16;;;;;;;5.07;4.77;;;10.70;99.90;;;;;;5054752;28;20171;-62
2023/01/13 12:18:02;;;;;;;7.20;6.80;;;10.90;99.90;;;;;;5015124;28;20215;-63
2023/01/13 12:20:52;;;;;;;5.17;4.77;;;11.00;99.90;;;;;;5018875;28;20178;-63
2023/01/13 12:24:04;;;;;;;7.67;4.73;;;11.20;99.90;;;;;;5054482;28;20178;-62
2023/01/13 12:26:36;;;;;;;6.90;6.37;;;11.40;99.90;;;;;;5012261;28;20188;-63
2023/01/13 12:29:09;;;;;;;38.63;35.90;;;11.40;99.90;;;;;;4995695;28;20717;-63
2023/01/13 12:31:36;;;;;;;5.80;5.30;;;11.20;99.90;;;;;;5018235;28;20211;-63
2023/01/13 12:34:20;;;;;;;7.80;5.33;;;11.10;99.90;;;;;;5035776;28;20170;-64
2023/01/13 12:37:20;;;;;;;6.00;4.70;;;11.20;99.90;;;;;;5054308;28;20253;-63
2023/01/13 12:39:46;;;;;;;4.70;4.40;;;11.30;99.90;;;;;;5049516;28;20178;-64
2023/01/13 12:45:23;;;;;;;5.13;4.67;;;11.00;99.90;;;;;;5014852;28;20591;-63
2023/01/13 12:47:48;;;;;;;15.90;15.20;;;10.70;99.90;;;;;;5020818;28;20176;-64
2023/01/13 12:50:26;;;;;;;14.67;13.90;;;10.40;99.90;;;;;;5053762;28;20192;-63
2023/01/13 12:52:55;;;;;;;5.07;4.67;;;9.80;99.90;;;;;;5054167;28;20309;-64
2023/01/13 12:55:34;;;;;;;6.37;6.00;;;9.50;99.90;;;;;;5054007;28;20178;-64
2023/01/13 12:58:09;;;;;;;7.07;6.67;;;9.30;99.90;;;;;;5050582;28;20186;-63
2023/01/13 13:00:40;;;;;;;5.63;5.30;;;9.10;99.90;;;;;;5033600;28;20177;-64
2023/01/13 13:03:14;;;;;;;9.10;6.63;;;9.00;99.90;;;;;;5035059;28;20309;-63
2023/01/13 13:05:43;;;;;;;5.40;5.00;;;9.00;99.90;;;;;;5032808;28;20202;-64
2023/01/13 13:08:15;;;;;;;5.73;5.40;;;8.90;99.90;;;;;;5023128;28;20176;-64
2023/01/13 13:14:36;;;;;;;6.23;5.73;;;8.80;99.90;;;;;;5043630;28;20182;-63
2023/01/13 13:17:26;;;;;;;5.50;5.07;;;8.80;99.90;;;;;;5030024;28;20265;-63
2023/01/13 13:19:52;;;;;;;5.67;5.27;;;8.90;99.90;;;;;;5032437;28;20619;-64
2023/01/13 13:22:40;;;;;;;5.50;5.20;;;9.00;99.90;;;;;;5041985;28;20194;-64
2023/01/13 13:25:32;;;;;;;6.07;5.63;;;9.00;99.90;;;;;;5044548;28;20254;-63
2023/01/13 13:28:14;;;;;;;6.03;5.73;;;9.00;99.90;;;;;;5032264;28;20685;-63
2023/01/13 13:30:50;;;;;;;5.70;5.27;;;9.10;99.90;;;;;;5013664;28;20635;-63
2023/01/13 13:33:46;;;;;;;5.83;5.50;;;9.10;99.90;;;;;;5013591;28;20168;-64
2023/01/13 13:36:29;;;;;;;6.63;6.03;;;9.10;99.90;;;;;;5014681;28;20172;-63
2023/01/13 13:48:20;;;;;;;6.17;5.73;;;9.20;99.90;;;;;;5011267;28;20183;-63
2023/01/13 13:50:55;;;;;;;6.93;6.47;;;9.20;99.90;;;;;;5026295;28;20179;-63
2023/01/13 13:53:26;;;;;;;5.83;5.33;;;9.30;99.90;;;;;;5033084;28;20167;-63
2023/01/13 13:55:58;;;;;;;5.10;4.80;;;9.40;99.90;;;;;;5034954;28;20618;-63
2023/01/13 13:58:26;;;;;;;5.90;5.33;;;9.50;99.90;;;;;;5038767;28;20199;-63
2023/01/13 14:00:53;;;;;;;5.53;5.23;;;9.60;99.90;;;;;;5050761;28;20175;-64
2023/01/13 14:03:29;;;;;;;5.40;5.20;;;9.70;99.90;;;;;;5048143;28;20186;-63
2023/01/13 14:05:59;;;;;;;10.97;4.73;;;9.80;99.90;;;;;;5034190;28;20617;-63
2023/01/13 14:08:27;;;;;;;4.87;4.63;;;9.80;99.90;;;;;;5038856;28;20730;-63
2023/01/13 14:10:52;;;;;;;5.17;4.87;;;9.80;99.90;;;;;;5036353;28;20180;-63